sensor_id;sensor_type;location;lat;lon;timestamp;P1;durP1;ratioP1;P2;durP2;ratioP2
4819;SDS011;2424;49.696;6.630;2023-12-20T00:04:49;0.40;;;0.40;;
4819;SDS011;2424;49.696;6.630;2023-12-20T00:10:11;0.40;;;0.30;;
4819;SDS011;2424;49.696;6.630;2023-12-20T00:15:34;0.50;;;0.50;;
4819;SDS011;2424;49.696;6.630;2023-12-20T00:20:56;0.37;;;0.37;;
4819;SDS011;2424;49.696;6.630;2023-12-20T00:26:18;0.30;;;0.30;;
4819;SDS011;2424;49.696;6.630;2023-12-20T00:31:42;0.27;;;0.27;;
4819;SDS011;2424;49.696;6.630;2023-12-20T00:37:04;0.33;;;0.33;;
4819;SDS011;2424;49.696;6.630;2023-12-20T00:42:26;0.30;;;0.30;;
4819;SDS011;2424;49.696;6.630;2023-12-20T00:47:49;0.80;;;0.30;;
4819;SDS011;2424;49.696;6.630;2023-12-20T00:53:11;0.40;;;0.40;;
4819;SDS011;2424;49.696;6.630;2023-12-20T00:58:34;0.67;;;0.30;;
4819;SDS011;2424;49.696;6.630;2023-12-20T01:03:57;0.40;;;0.40;;
4819;SDS011;2424;49.696;6.630;2023-12-20T01:09:19;0.67;;;0.30;;
4819;SDS011;2424;49.696;6.630;2023-12-20T01:14:43;0.23;;;0.23;;
4819;SDS011;2424;49.696;6.630;2023-12-20T01:20:07;0.40;;;0.40;;
4819;SDS011;2424;49.696;6.630;2023-12-20T01:25:30;0.30;;;0.30;;
4819;SDS011;2424;49.696;6.630;2023-12-20T01:30:52;1.30;;;0.53;;
4819;SDS011;2424;49.696;6.630;2023-12-20T01:36:15;0.40;;;0.40;;
4819;SDS011;2424;49.696;6.630;2023-12-20T01:41:37;0.73;;;0.40;;
4819;SDS011;2424;49.696;6.630;2023-12-20T01:46:59;0.40;;;0.40;;
4819;SDS011;2424;49.696;6.630;2023-12-20T01:52:23;0.40;;;0.40;;
4819;SDS011;2424;49.696;6.630;2023-12-20T01:57:47;0.30;;;0.30;;
4819;SDS011;2424;49.696;6.630;2023-12-20T02:03:09;0.33;;;0.33;;
4819;SDS011;2424;49.696;6.630;2023-12-20T02:08:32;0.40;;;0.40;;
4819;SDS011;2424;49.696;6.630;2023-12-20T02:13:55;0.27;;;0.27;;
4819;SDS011;2424;49.696;6.630;2023-12-20T02:19:17;0.70;;;0.30;;
4819;SDS011;2424;49.696;6.630;2023-12-20T02:24:42;0.67;;;0.67;;
4819;SDS011;2424;49.696;6.630;2023-12-20T02:30:05;0.50;;;0.50;;
4819;SDS011;2424;49.696;6.630;2023-12-20T02:35:27;0.30;;;0.30;;
4819;SDS011;2424;49.696;6.630;2023-12-20T02:40:51;0.27;;;0.27;;
4819;SDS011;2424;49.696;6.630;2023-12-20T02:46:13;0.37;;;0.37;;
4819;SDS011;2424;49.696;6.630;2023-12-20T02:51:37;0.40;;;0.40;;
4819;SDS011;2424;49.696;6.630;2023-12-20T02:57:00;1.07;;;0.40;;
4819;SDS011;2424;49.696;6.630;2023-12-20T03:02:22;0.83;;;0.50;;
4819;SDS011;2424;49.696;6.630;2023-12-20T03:07:44;0.70;;;0.70;;
4819;SDS011;2424;49.696;6.630;2023-12-20T03:13:08;0.40;;;0.40;;
4819;SDS011;2424;49.696;6.630;2023-12-20T03:18:30;0.33;;;0.33;;
4819;SDS011;2424;49.696;6.630;2023-12-20T03:23:52;0.40;;;0.40;;
4819;SDS011;2424;49.696;6.630;2023-12-20T03:29:15;0.73;;;0.70;;
4819;SDS011;2424;49.696;6.630;2023-12-20T03:34:37;0.77;;;0.63;;
4819;SDS011;2424;49.696;6.630;2023-12-20T03:40:00;0.90;;;0.90;;
4819;SDS011;2424;49.696;6.630;2023-12-20T03:45:23;0.67;;;0.67;;
4819;SDS011;2424;49.696;6.630;2023-12-20T03:50:45;0.70;;;0.70;;
4819;SDS011;2424;49.696;6.630;2023-12-20T03:56:07;1.13;;;0.80;;
4819;SDS011;2424;49.696;6.630;2023-12-20T04:01:31;0.40;;;0.40;;
4819;SDS011;2424;49.696;6.630;2023-12-20T04:06:53;0.37;;;0.37;;
4819;SDS011;2424;49.696;6.630;2023-12-20T04:12:15;0.50;;;0.50;;
4819;SDS011;2424;49.696;6.630;2023-12-20T04:17:38;0.33;;;0.33;;
4819;SDS011;2424;49.696;6.630;2023-12-20T04:23:00;0.50;;;0.50;;
4819;SDS011;2424;49.696;6.630;2023-12-20T04:28:22;0.60;;;0.60;;
4819;SDS011;2424;49.696;6.630;2023-12-20T04:33:46;0.60;;;0.60;;
4819;SDS011;2424;49.696;6.630;2023-12-20T04:39:08;0.40;;;0.40;;
4819;SDS011;2424;49.696;6.630;2023-12-20T04:44:30;1.53;;;1.43;;
4819;SDS011;2424;49.696;6.630;2023-12-20T04:49:54;1.33;;;1.07;;
4819;SDS011;2424;49.696;6.630;2023-12-20T04:55:16;0.67;;;0.67;;
4819;SDS011;2424;49.696;6.630;2023-12-20T05:00:38;0.50;;;0.50;;
4819;SDS011;2424;49.696;6.630;2023-12-20T05:06:02;0.33;;;0.33;;
4819;SDS011;2424;49.696;6.630;2023-12-20T05:11:24;0.90;;;0.90;;
4819;SDS011;2424;49.696;6.630;2023-12-20T05:16:46;0.97;;;0.97;;
4819;SDS011;2424;49.696;6.630;2023-12-20T05:22:09;7.27;;;1.80;;
4819;SDS011;2424;49.696;6.630;2023-12-20T05:27:32;0.70;;;0.70;;
4819;SDS011;2424;49.696;6.630;2023-12-20T05:32:54;0.80;;;0.60;;
4819;SDS011;2424;49.696;6.630;2023-12-20T05:38:17;0.67;;;0.67;;
4819;SDS011;2424;49.696;6.630;2023-12-20T05:43:39;0.40;;;0.40;;
4819;SDS011;2424;49.696;6.630;2023-12-20T05:49:01;0.57;;;0.57;;
4819;SDS011;2424;49.696;6.630;2023-12-20T05:54:24;0.43;;;0.43;;
4819;SDS011;2424;49.696;6.630;2023-12-20T05:59:46;0.60;;;0.60;;
4819;SDS011;2424;49.696;6.630;2023-12-20T06:05:09;0.43;;;0.43;;
4819;SDS011;2424;49.696;6.630;2023-12-20T06:10:32;0.60;;;0.60;;
4819;SDS011;2424;49.696;6.630;2023-12-20T06:15:54;0.47;;;0.47;;
4819;SDS011;2424;49.696;6.630;2023-12-20T06:21:16;0.27;;;0.27;;
4819;SDS011;2424;49.696;6.630;2023-12-20T06:26:40;0.67;;;0.67;;
4819;SDS011;2424;49.696;6.630;2023-12-20T06:32:03;1.03;;;0.77;;
4819;SDS011;2424;49.696;6.630;2023-12-20T06:37:25;0.40;;;0.40;;
4819;SDS011;2424;49.696;6.630;2023-12-20T06:42:48;0.40;;;0.40;;
4819;SDS011;2424;49.696;6.630;2023-12-20T06:48:10;1.77;;;0.80;;
4819;SDS011;2424;49.696;6.630;2023-12-20T06:53:33;1.90;;;0.60;;
4819;SDS011;2424;49.696;6.630;2023-12-20T06:58:56;0.60;;;0.60;;
4819;SDS011;2424;49.696;6.630;2023-12-20T07:04:19;0.87;;;0.87;;
4819;SDS011;2424;49.696;6.630;2023-12-20T07:09:42;1.47;;;0.90;;
4819;SDS011;2424;49.696;6.630;2023-12-20T07:15:06;0.97;;;0.97;;
4819;SDS011;2424;49.696;6.630;2023-12-20T07:20:28;7.10;;;0.87;;
4819;SDS011;2424;49.696;6.630;2023-12-20T07:25:50;1.03;;;1.03;;
4819;SDS011;2424;49.696;6.630;2023-12-20T07:31:14;4.30;;;0.60;;
4819;SDS011;2424;49.696;6.630;2023-12-20T07:36:37;0.50;;;0.50;;
4819;SDS011;2424;49.696;6.630;2023-12-20T07:41:59;1.03;;;1.03;;
4819;SDS011;2424;49.696;6.630;2023-12-20T07:47:22;2.57;;;1.27;;
4819;SDS011;2424;49.696;6.630;2023-12-20T07:52:45;1.20;;;0.50;;
4819;SDS011;2424;49.696;6.630;2023-12-20T07:58:07;4.80;;;1.33;;
4819;SDS011;2424;49.696;6.630;2023-12-20T08:03:30;1.20;;;1.10;;
4819;SDS011;2424;49.696;6.630;2023-12-20T08:08:52;1.30;;;1.20;;
4819;SDS011;2424;49.696;6.630;2023-12-20T08:14:14;1.17;;;1.07;;
4819;SDS011;2424;49.696;6.630;2023-12-20T08:19:38;1.07;;;1.07;;
4819;SDS011;2424;49.696;6.630;2023-12-20T08:25:00;2.57;;;0.80;;
4819;SDS011;2424;49.696;6.630;2023-12-20T08:30:22;0.80;;;0.80;;
4819;SDS011;2424;49.696;6.630;2023-12-20T08:35:46;1.47;;;1.47;;
4819;SDS011;2424;49.696;6.630;2023-12-20T08:41:08;4.03;;;1.87;;
4819;SDS011;2424;49.696;6.630;2023-12-20T08:46:30;1.50;;;1.40;;
4819;SDS011;2424;49.696;6.630;2023-12-20T08:51:54;2.30;;;1.67;;
4819;SDS011;2424;49.696;6.630;2023-12-20T08:57:16;1.20;;;1.20;;
4819;SDS011;2424;49.696;6.630;2023-12-20T09:02:38;3.80;;;2.23;;
4819;SDS011;2424;49.696;6.630;2023-12-20T09:08:01;1.83;;;1.73;;
4819;SDS011;2424;49.696;6.630;2023-12-20T09:13:24;1.67;;;1.57;;
4819;SDS011;2424;49.696;6.630;2023-12-20T09:18:48;0.90;;;0.90;;
4819;SDS011;2424;49.696;6.630;2023-12-20T09:24:11;1.17;;;1.17;;
4819;SDS011;2424;49.696;6.630;2023-12-20T09:29:33;2.40;;;1.50;;
4819;SDS011;2424;49.696;6.630;2023-12-20T09:34:55;4.20;;;1.40;;
4819;SDS011;2424;49.696;6.630;2023-12-20T09:40:19;1.27;;;1.00;;
4819;SDS011;2424;49.696;6.630;2023-12-20T09:45:41;1.83;;;1.60;;
4819;SDS011;2424;49.696;6.630;2023-12-20T09:51:06;2.00;;;1.47;;
4819;SDS011;2424;49.696;6.630;2023-12-20T09:56:30;1.37;;;1.27;;
4819;SDS011;2424;49.696;6.630;2023-12-20T10:01:52;2.17;;;1.97;;
4819;SDS011;2424;49.696;6.630;2023-12-20T10:07:18;2.73;;;1.57;;
4819;SDS011;2424;49.696;6.630;2023-12-20T10:12:41;1.13;;;1.10;;
4819;SDS011;2424;49.696;6.630;2023-12-20T10:18:22;1.23;;;1.23;;
4819;SDS011;2424;49.696;6.630;2023-12-20T10:23:45;4.73;;;1.70;;
4819;SDS011;2424;49.696;6.630;2023-12-20T10:29:08;1.50;;;1.37;;
4819;SDS011;2424;49.696;6.630;2023-12-20T10:34:32;0.57;;;0.57;;
4819;SDS011;2424;49.696;6.630;2023-12-20T10:39:54;1.67;;;1.00;;
4819;SDS011;2424;49.696;6.630;2023-12-20T10:45:19;6.43;;;1.47;;
4819;SDS011;2424;49.696;6.630;2023-12-20T10:50:41;4.97;;;1.40;;
4819;SDS011;2424;49.696;6.630;2023-12-20T10:56:03;9.13;;;1.00;;
4819;SDS011;2424;49.696;6.630;2023-12-20T11:01:28;1.90;;;1.30;;
4819;SDS011;2424;49.696;6.630;2023-12-20T11:06:52;0.60;;;0.60;;
4819;SDS011;2424;49.696;6.630;2023-12-20T11:12:23;1.73;;;0.67;;
4819;SDS011;2424;49.696;6.630;2023-12-20T11:17:58;3.80;;;0.87;;
4819;SDS011;2424;49.696;6.630;2023-12-20T11:23:20;0.73;;;0.73;;
4819;SDS011;2424;49.696;6.630;2023-12-20T11:28:44;1.90;;;0.47;;
4819;SDS011;2424;49.696;6.630;2023-12-20T11:34:13;1.33;;;0.67;;
4819;SDS011;2424;49.696;6.630;2023-12-20T11:39:35;1.03;;;0.93;;
4819;SDS011;2424;49.696;6.630;2023-12-20T11:44:58;1.33;;;1.23;;
4819;SDS011;2424;49.696;6.630;2023-12-20T11:50:25;1.13;;;0.60;;
4819;SDS011;2424;49.696;6.630;2023-12-20T11:55:48;2.57;;;0.93;;
4819;SDS011;2424;49.696;6.630;2023-12-20T12:01:10;2.77;;;1.03;;
4819;SDS011;2424;49.696;6.630;2023-12-20T12:06:33;0.80;;;0.80;;
4819;SDS011;2424;49.696;6.630;2023-12-20T12:11:55;3.73;;;1.37;;
4819;SDS011;2424;49.696;6.630;2023-12-20T12:17:18;2.37;;;2.17;;
4819;SDS011;2424;49.696;6.630;2023-12-20T12:22:41;2.60;;;0.60;;
4819;SDS011;2424;49.696;6.630;2023-12-20T12:28:05;2.10;;;0.97;;
4819;SDS011;2424;49.696;6.630;2023-12-20T12:33:27;1.90;;;0.57;;
4819;SDS011;2424;49.696;6.630;2023-12-20T12:38:51;1.00;;;0.90;;
4819;SDS011;2424;49.696;6.630;2023-12-20T12:44:13;1.57;;;1.30;;
4819;SDS011;2424;49.696;6.630;2023-12-20T12:49:35;3.70;;;0.43;;
4819;SDS011;2424;49.696;6.630;2023-12-20T12:54:58;4.40;;;1.70;;
4819;SDS011;2424;49.696;6.630;2023-12-20T13:00:20;2.00;;;0.80;;
4819;SDS011;2424;49.696;6.630;2023-12-20T13:05:42;1.43;;;0.73;;
4819;SDS011;2424;49.696;6.630;2023-12-20T13:11:06;0.73;;;0.50;;
4819;SDS011;2424;49.696;6.630;2023-12-20T13:16:28;1.37;;;1.27;;
4819;SDS011;2424;49.696;6.630;2023-12-20T13:21:50;0.53;;;0.50;;
4819;SDS011;2424;49.696;6.630;2023-12-20T13:27:13;2.33;;;1.37;;
4819;SDS011;2424;49.696;6.630;2023-12-20T13:32:36;4.03;;;1.37;;
4819;SDS011;2424;49.696;6.630;2023-12-20T13:37:58;2.30;;;1.20;;
4819;SDS011;2424;49.696;6.630;2023-12-20T13:43:21;2.70;;;1.77;;
4819;SDS011;2424;49.696;6.630;2023-12-20T13:48:44;7.83;;;0.70;;
4819;SDS011;2424;49.696;6.630;2023-12-20T13:54:06;0.30;;;0.30;;
4819;SDS011;2424;49.696;6.630;2023-12-20T13:59:30;1.23;;;0.60;;
4819;SDS011;2424;49.696;6.630;2023-12-20T14:04:52;0.70;;;0.70;;
4819;SDS011;2424;49.696;6.630;2023-12-20T14:10:14;0.80;;;0.60;;
4819;SDS011;2424;49.696;6.630;2023-12-20T14:15:38;1.40;;;0.73;;
4819;SDS011;2424;49.696;6.630;2023-12-20T14:21:00;1.37;;;1.27;;
4819;SDS011;2424;49.696;6.630;2023-12-20T14:26:22;0.90;;;0.90;;
4819;SDS011;2424;49.696;6.630;2023-12-20T14:31:45;1.43;;;1.37;;
4819;SDS011;2424;49.696;6.630;2023-12-20T14:37:09;1.00;;;0.77;;
4819;SDS011;2424;49.696;6.630;2023-12-20T14:42:31;10.63;;;1.03;;
4819;SDS011;2424;49.696;6.630;2023-12-20T14:47:55;1.10;;;1.10;;
4819;SDS011;2424;49.696;6.630;2023-12-20T14:53:17;0.90;;;0.67;;
4819;SDS011;2424;49.696;6.630;2023-12-20T14:58:39;0.50;;;0.50;;
4819;SDS011;2424;49.696;6.630;2023-12-20T15:04:02;5.43;;;1.47;;
4819;SDS011;2424;49.696;6.630;2023-12-20T15:09:25;1.73;;;0.83;;
4819;SDS011;2424;49.696;6.630;2023-12-20T15:14:49;1.73;;;1.00;;
4819;SDS011;2424;49.696;6.630;2023-12-20T15:20:13;0.87;;;0.80;;
4819;SDS011;2424;49.696;6.630;2023-12-20T15:25:35;1.37;;;0.83;;
4819;SDS011;2424;49.696;6.630;2023-12-20T15:30:57;1.10;;;1.10;;
4819;SDS011;2424;49.696;6.630;2023-12-20T15:36:20;1.80;;;1.60;;
4819;SDS011;2424;49.696;6.630;2023-12-20T15:41:42;0.90;;;0.90;;
4819;SDS011;2424;49.696;6.630;2023-12-20T15:47:04;0.40;;;0.40;;
4819;SDS011;2424;49.696;6.630;2023-12-20T15:52:28;0.93;;;0.90;;
4819;SDS011;2424;49.696;6.630;2023-12-20T15:57:50;2.97;;;1.53;;
4819;SDS011;2424;49.696;6.630;2023-12-20T16:03:12;1.07;;;0.80;;
4819;SDS011;2424;49.696;6.630;2023-12-20T16:08:35;1.10;;;1.00;;
4819;SDS011;2424;49.696;6.630;2023-12-20T16:13:57;1.30;;;0.87;;
4819;SDS011;2424;49.696;6.630;2023-12-20T16:19:19;2.50;;;0.50;;
4819;SDS011;2424;49.696;6.630;2023-12-20T16:24:43;0.77;;;0.60;;
4819;SDS011;2424;49.696;6.630;2023-12-20T16:30:05;3.03;;;0.87;;
4819;SDS011;2424;49.696;6.630;2023-12-20T16:35:28;0.83;;;0.70;;
4819;SDS011;2424;49.696;6.630;2023-12-20T16:40:51;2.93;;;1.00;;
4819;SDS011;2424;49.696;6.630;2023-12-20T16:46:14;4.53;;;1.10;;
4819;SDS011;2424;49.696;6.630;2023-12-20T16:51:36;0.43;;;0.43;;
4819;SDS011;2424;49.696;6.630;2023-12-20T16:57:00;4.57;;;1.10;;
4819;SDS011;2424;49.696;6.630;2023-12-20T17:02:22;2.93;;;2.53;;
4819;SDS011;2424;49.696;6.630;2023-12-20T17:07:44;1.73;;;1.67;;
4819;SDS011;2424;49.696;6.630;2023-12-20T17:13:07;2.10;;;1.63;;
4819;SDS011;2424;49.696;6.630;2023-12-20T17:18:29;1.17;;;1.17;;
4819;SDS011;2424;49.696;6.630;2023-12-20T17:23:51;1.67;;;1.67;;
4819;SDS011;2424;49.696;6.630;2023-12-20T17:29:15;3.10;;;1.97;;
4819;SDS011;2424;49.696;6.630;2023-12-20T17:34:37;3.53;;;2.10;;
4819;SDS011;2424;49.696;6.630;2023-12-20T17:39:59;3.87;;;1.87;;
4819;SDS011;2424;49.696;6.630;2023-12-20T17:45:22;2.30;;;1.03;;
4819;SDS011;2424;49.696;6.630;2023-12-20T17:50:45;1.20;;;1.20;;
4819;SDS011;2424;49.696;6.630;2023-12-20T17:56:07;0.60;;;0.60;;
4819;SDS011;2424;49.696;6.630;2023-12-20T18:01:30;3.27;;;1.30;;
4819;SDS011;2424;49.696;6.630;2023-12-20T18:06:52;2.10;;;1.40;;
4819;SDS011;2424;49.696;6.630;2023-12-20T18:12:15;5.07;;;1.50;;
4819;SDS011;2424;49.696;6.630;2023-12-20T18:17:38;1.87;;;0.60;;
4819;SDS011;2424;49.696;6.630;2023-12-20T18:23:01;4.70;;;1.20;;
4819;SDS011;2424;49.696;6.630;2023-12-20T18:28:23;0.90;;;0.90;;
4819;SDS011;2424;49.696;6.630;2023-12-20T18:33:46;7.53;;;2.17;;
4819;SDS011;2424;49.696;6.630;2023-12-20T18:39:08;1.60;;;1.50;;
4819;SDS011;2424;49.696;6.630;2023-12-20T18:44:30;1.57;;;1.47;;
4819;SDS011;2424;49.696;6.630;2023-12-20T18:49:54;6.17;;;1.97;;
4819;SDS011;2424;49.696;6.630;2023-12-20T18:55:16;1.17;;;1.17;;
4819;SDS011;2424;49.696;6.630;2023-12-20T19:00:38;3.73;;;2.97;;
4819;SDS011;2424;49.696;6.630;2023-12-20T19:06:02;2.20;;;2.10;;
4819;SDS011;2424;49.696;6.630;2023-12-20T19:11:24;1.80;;;1.80;;
4819;SDS011;2424;49.696;6.630;2023-12-20T19:16:46;5.53;;;2.53;;
4819;SDS011;2424;49.696;6.630;2023-12-20T19:22:09;2.30;;;2.20;;
4819;SDS011;2424;49.696;6.630;2023-12-20T19:27:32;2.57;;;2.30;;
4819;SDS011;2424;49.696;6.630;2023-12-20T19:32:54;3.63;;;3.30;;
4819;SDS011;2424;49.696;6.630;2023-12-20T19:38:17;1.63;;;1.53;;
4819;SDS011;2424;49.696;6.630;2023-12-20T19:43:40;2.80;;;2.00;;
4819;SDS011;2424;49.696;6.630;2023-12-20T19:49:02;3.37;;;1.53;;
4819;SDS011;2424;49.696;6.630;2023-12-20T19:54:26;1.70;;;1.27;;
4819;SDS011;2424;49.696;6.630;2023-12-20T19:59:48;2.00;;;1.90;;
4819;SDS011;2424;49.696;6.630;2023-12-20T20:05:10;3.27;;;2.20;;
4819;SDS011;2424;49.696;6.630;2023-12-20T20:10:33;1.60;;;1.50;;
4819;SDS011;2424;49.696;6.630;2023-12-20T20:15:55;1.00;;;1.00;;
4819;SDS011;2424;49.696;6.630;2023-12-20T20:21:17;2.73;;;2.63;;
4819;SDS011;2424;49.696;6.630;2023-12-20T20:26:41;2.53;;;1.90;;
4819;SDS011;2424;49.696;6.630;2023-12-20T20:32:03;1.60;;;1.50;;
4819;SDS011;2424;49.696;6.630;2023-12-20T20:37:26;2.33;;;2.23;;
4819;SDS011;2424;49.696;6.630;2023-12-20T20:42:50;3.00;;;2.80;;
4819;SDS011;2424;49.696;6.630;2023-12-20T20:48:12;1.80;;;1.80;;
4819;SDS011;2424;49.696;6.630;2023-12-20T20:53:34;1.30;;;1.23;;
4819;SDS011;2424;49.696;6.630;2023-12-20T20:58:58;1.77;;;1.10;;
4819;SDS011;2424;49.696;6.630;2023-12-20T21:04:20;2.53;;;1.57;;
4819;SDS011;2424;49.696;6.630;2023-12-20T21:09:42;1.43;;;1.33;;
4819;SDS011;2424;49.696;6.630;2023-12-20T21:15:06;1.97;;;1.87;;
4819;SDS011;2424;49.696;6.630;2023-12-20T21:20:29;2.17;;;1.60;;
4819;SDS011;2424;49.696;6.630;2023-12-20T21:25:51;0.93;;;0.93;;
4819;SDS011;2424;49.696;6.630;2023-12-20T21:31:15;2.53;;;1.77;;
4819;SDS011;2424;49.696;6.630;2023-12-20T21:36:37;1.20;;;1.20;;
4819;SDS011;2424;49.696;6.630;2023-12-20T21:41:59;1.30;;;1.30;;
4819;SDS011;2424;49.696;6.630;2023-12-20T21:47:23;2.20;;;1.30;;
4819;SDS011;2424;49.696;6.630;2023-12-20T21:52:45;0.80;;;0.80;;
4819;SDS011;2424;49.696;6.630;2023-12-20T21:58:08;0.97;;;0.83;;
4819;SDS011;2424;49.696;6.630;2023-12-20T22:03:31;3.40;;;1.20;;
4819;SDS011;2424;49.696;6.630;2023-12-20T22:08:53;1.43;;;1.27;;
4819;SDS011;2424;49.696;6.630;2023-12-20T22:14:15;1.33;;;1.27;;
4819;SDS011;2424;49.696;6.630;2023-12-20T22:19:39;1.63;;;0.80;;
4819;SDS011;2424;49.696;6.630;2023-12-20T22:25:01;1.17;;;1.07;;
4819;SDS011;2424;49.696;6.630;2023-12-20T22:30:23;1.60;;;1.60;;
4819;SDS011;2424;49.696;6.630;2023-12-20T22:35:47;1.13;;;1.13;;
4819;SDS011;2424;49.696;6.630;2023-12-20T22:41:09;0.57;;;0.57;;
4819;SDS011;2424;49.696;6.630;2023-12-20T22:46:31;0.77;;;0.50;;
4819;SDS011;2424;49.696;6.630;2023-12-20T22:51:55;0.50;;;0.50;;
4819;SDS011;2424;49.696;6.630;2023-12-20T22:57:17;0.63;;;0.63;;
4819;SDS011;2424;49.696;6.630;2023-12-20T23:02:39;0.57;;;0.57;;
4819;SDS011;2424;49.696;6.630;2023-12-20T23:08:03;0.60;;;0.60;;
4819;SDS011;2424;49.696;6.630;2023-12-20T23:13:27;0.47;;;0.47;;
4819;SDS011;2424;49.696;6.630;2023-12-20T23:18:49;0.30;;;0.30;;
4819;SDS011;2424;49.696;6.630;2023-12-20T23:24:13;1.40;;;0.60;;
4819;SDS011;2424;49.696;6.630;2023-12-20T23:29:35;0.67;;;0.67;;
4819;SDS011;2424;49.696;6.630;2023-12-20T23:34:57;0.60;;;0.50;;
4819;SDS011;2424;49.696;6.630;2023-12-20T23:40:20;0.57;;;0.57;;
4819;SDS011;2424;49.696;6.630;2023-12-20T23:45:42;0.50;;;0.50;;
4819;SDS011;2424;49.696;6.630;2023-12-20T23:51:04;0.90;;;0.70;;
4819;SDS011;2424;49.696;6.630;2023-12-20T23:56:28;0.40;;;0.40;;
